createdAt,value
2024-02-02T00:01:55.387Z,100151.53
2024-02-02T00:04:23.475Z,100149.06
2024-02-02T00:06:51.568Z,100137.72
2024-02-02T00:09:20.851Z,100147.88
2024-02-02T00:11:50.355Z,100146.03
2024-02-02T00:14:18.599Z,100153.03
2024-02-02T00:16:46.843Z,100134.28
2024-02-02T00:19:15.022Z,100132.69
2024-02-02T00:21:43.100Z,100144.13
2024-02-02T00:24:11.778Z,100141.19
2024-02-02T00:26:39.842Z,100130.03
2024-02-02T00:29:09.317Z,100133.50
2024-02-02T00:31:37.336Z,100142.09
2024-02-02T00:34:05.578Z,100118.56
2024-02-02T00:36:33.703Z,100129.50
2024-02-02T00:39:02.091Z,100125.13
2024-02-02T00:41:30.169Z,100128.00
2024-02-02T00:43:58.356Z,100129.50
2024-02-02T00:46:29.711Z,100127.53
2024-02-02T00:48:58.097Z,100125.28
2024-02-02T00:51:26.717Z,100121.13
2024-02-02T00:53:54.806Z,100120.72
2024-02-02T00:56:25.313Z,100112.16
2024-02-02T00:58:53.556Z,100104.13
2024-02-02T01:01:21.637Z,100108.38
2024-02-02T01:03:51.159Z,99979.78
2024-02-02T01:06:19.279Z,100102.47
2024-02-02T01:08:47.531Z,100111.00
2024-02-02T01:11:15.689Z,100112.41
2024-02-02T01:13:43.708Z,100109.25
2024-02-02T01:16:11.752Z,100109.53
2024-02-02T01:18:39.929Z,100112.41
2024-02-02T01:21:10.184Z,100101.00
2024-02-02T01:23:38.265Z,100096.94
2024-02-02T01:26:06.539Z,100098.81
2024-02-02T01:28:35.177Z,100094.47
2024-02-02T01:31:03.367Z,100080.31
2024-02-02T01:33:31.593Z,100085.09
2024-02-02T01:36:00.163Z,100076.63
2024-02-02T01:38:29.551Z,100077.81
2024-02-02T01:40:57.625Z,100065.56
2024-02-02T01:43:27.342Z,100035.72
2024-02-02T01:45:55.664Z,100041.16
2024-02-02T01:48:25.573Z,100058.31
2024-02-02T01:50:54.824Z,100053.03
2024-02-02T01:53:23.045Z,100057.88
2024-02-02T01:55:52.474Z,100057.78
2024-02-02T01:58:21.028Z,99996.91
2024-02-02T02:00:49.511Z,100065.59
2024-02-02T02:03:18.418Z,100057.72
2024-02-02T02:05:46.607Z,100056.91
2024-02-02T02:08:14.918Z,100057.41
2024-02-02T02:10:43.044Z,100050.22
2024-02-02T02:13:12.515Z,100062.84
2024-02-02T02:15:40.655Z,100054.19
2024-02-02T02:18:08.893Z,100054.56
2024-02-02T02:20:37.258Z,100055.19
2024-02-02T02:23:06.829Z,100055.28
2024-02-02T02:25:34.951Z,100056.06
2024-02-02T02:28:02.985Z,100053.03
2024-02-02T02:30:31.185Z,100053.09
2024-02-02T02:32:59.898Z,100063.69
2024-02-02T02:35:28.040Z,100049.13
2024-02-02T02:37:56.071Z,100056.09
2024-02-02T02:40:25.574Z,100053.97
2024-02-02T02:42:53.644Z,100056.44
2024-02-02T02:45:22.368Z,100055.13
2024-02-02T02:47:50.913Z,100067.50
2024-02-02T02:50:18.999Z,100067.25
2024-02-02T02:52:47.100Z,100076.38
2024-02-02T02:55:15.453Z,100061.28
2024-02-02T02:57:44.890Z,99940.84
2024-02-02T03:00:14.182Z,100054.31
2024-02-02T03:02:42.272Z,100063.03
2024-02-02T03:05:10.650Z,100056.00
2024-02-02T03:07:38.672Z,100067.47
2024-02-02T03:10:07.126Z,100054.91
2024-02-02T03:12:35.223Z,100062.19
2024-02-02T03:15:05.499Z,100060.44
2024-02-02T03:17:33.681Z,100055.09
2024-02-02T03:20:01.825Z,100058.44
2024-02-02T03:22:29.859Z,99941.91
2024-02-02T03:24:57.879Z,100048.91
2024-02-02T03:27:26.184Z,100041.06
2024-02-02T03:29:54.697Z,100058.38
2024-02-02T03:32:24.209Z,100053.56
2024-02-02T03:34:52.479Z,100046.06
2024-02-02T03:37:21.261Z,100058.69
2024-02-02T03:39:49.295Z,100024.16
2024-02-02T03:42:17.405Z,100054.59
2024-02-02T03:44:45.487Z,100055.50
2024-02-02T03:47:13.609Z,100065.41
2024-02-02T03:49:43.046Z,100065.25
2024-02-02T03:52:11.152Z,100067.16
2024-02-02T03:54:39.274Z,99965.78
2024-02-02T03:57:07.349Z,100072.97
2024-02-02T03:59:35.457Z,100061.13
2024-02-02T04:02:03.550Z,100071.44
2024-02-02T04:04:32.885Z,100059.78
2024-02-02T04:07:02.565Z,100070.59
2024-02-02T04:09:30.725Z,100079.28
2024-02-02T04:11:58.870Z,100041.31
2024-02-02T04:14:27.195Z,100063.19
2024-02-02T04:16:55.246Z,100078.50
2024-02-02T04:19:23.556Z,100081.06
2024-02-02T04:21:51.711Z,100086.84
2024-02-02T04:24:21.162Z,100088.22
2024-02-02T04:26:49.181Z,100087.75
2024-02-02T04:29:17.253Z,100084.81
2024-02-02T04:31:45.280Z,100088.84
2024-02-02T04:34:13.488Z,100091.03
2024-02-02T04:36:42.276Z,100094.22
2024-02-02T04:39:10.840Z,100096.44
2024-02-02T04:41:40.279Z,100096.63
2024-02-02T04:44:08.353Z,100104.19
2024-02-02T04:46:36.448Z,100103.19
2024-02-02T04:49:04.846Z,100093.38
2024-02-02T04:51:33.093Z,100081.22
2024-02-02T04:54:01.192Z,100119.44
2024-02-02T04:56:29.235Z,100113.50
2024-02-02T04:58:58.633Z,100130.00
2024-02-02T05:01:26.683Z,100118.78
2024-02-02T05:03:55.346Z,100117.94
2024-02-02T05:06:23.697Z,100120.13
2024-02-02T05:08:51.848Z,100129.94
2024-02-02T05:11:19.932Z,100132.53
2024-02-02T05:13:48.022Z,100135.97
2024-02-02T05:16:17.528Z,100124.47
2024-02-02T05:18:45.767Z,100135.13
2024-02-02T05:21:14.019Z,100137.28
2024-02-02T05:23:48.662Z,100104.25
2024-02-02T05:26:18.288Z,100156.75
2024-02-02T05:28:46.408Z,100149.66
2024-02-02T05:31:14.475Z,100153.66
2024-02-02T05:33:47.362Z,100163.88
2024-02-02T05:36:15.993Z,100167.22
2024-02-02T05:38:44.181Z,100174.44
2024-02-02T05:41:12.289Z,99732.53
2024-02-02T05:43:40.305Z,100180.56
2024-02-02T05:46:08.387Z,100170.44
2024-02-02T05:48:36.685Z,100189.41
2024-02-02T05:51:06.857Z,100187.53
2024-02-02T05:53:35.035Z,100187.72
2024-02-02T05:56:03.112Z,100191.72
2024-02-02T05:58:31.145Z,100194.50
2024-02-02T06:00:59.316Z,100194.50
2024-02-02T06:03:27.434Z,100207.69
2024-02-02T06:05:55.716Z,100213.97
2024-02-02T06:08:25.139Z,100202.22
2024-02-02T06:10:53.181Z,100204.16
2024-02-02T06:13:21.287Z,100216.09
2024-02-02T06:15:49.389Z,100204.84
2024-02-02T06:18:18.085Z,100208.88
2024-02-02T06:20:46.308Z,100204.34
2024-02-02T06:23:14.412Z,100209.88
2024-02-02T06:25:43.871Z,100204.75
2024-02-02T06:28:11.989Z,100211.38
2024-02-02T06:30:40.165Z,100197.03
2024-02-02T06:33:09.009Z,100204.19
2024-02-02T06:35:37.130Z,100209.84
2024-02-02T06:38:05.521Z,100209.16
2024-02-02T06:40:33.671Z,100191.91
2024-02-02T06:43:05.388Z,100190.91
2024-02-02T06:45:33.622Z,100205.91
2024-02-02T06:48:02.143Z,100214.25
2024-02-02T06:50:31.599Z,100190.16
2024-02-02T06:52:59.727Z,100216.69
2024-02-02T06:55:27.770Z,100205.09
2024-02-02T06:57:55.968Z,100210.63
2024-02-02T07:00:25.555Z,100237.19
2024-02-02T07:02:53.796Z,100244.09
2024-02-02T07:05:23.234Z,100248.50
2024-02-02T07:07:52.035Z,100247.41
2024-02-02T07:10:21.129Z,100152.16
2024-02-02T07:12:59.852Z,100248.41
2024-02-02T07:15:33.051Z,100267.25
2024-02-02T07:18:01.860Z,100264.66
2024-02-02T07:21:09.883Z,100272.28
2024-02-02T07:23:40.574Z,100234.03
2024-02-02T07:26:29.489Z,100279.00
2024-02-02T07:28:58.187Z,100274.78
2024-02-02T07:31:49.298Z,100275.06
2024-02-02T07:34:42.412Z,100267.75
2024-02-02T07:37:11.849Z,100286.81
2024-02-02T07:39:40.030Z,100270.84
2024-02-02T07:42:08.106Z,100299.81
2024-02-02T07:44:36.163Z,100311.28
2024-02-02T07:47:05.792Z,100315.28
2024-02-02T07:49:33.895Z,100323.59
2024-02-02T07:52:02.092Z,100316.84
2024-02-02T07:54:30.485Z,100309.31
2024-02-02T07:56:58.694Z,100304.84
2024-02-02T07:59:26.789Z,100324.69
2024-02-02T08:01:54.915Z,100322.88
2024-02-02T08:04:24.393Z,100332.50
2024-02-02T08:06:52.643Z,100320.75
2024-02-02T08:09:20.883Z,100311.16
2024-02-02T08:11:48.906Z,100324.88
2024-02-02T08:14:17.081Z,100335.00
2024-02-02T08:16:45.148Z,100326.03
2024-02-02T08:19:13.285Z,100269.50
2024-02-02T08:21:42.856Z,100358.50
2024-02-02T08:24:11.219Z,100358.97
2024-02-02T08:26:39.235Z,100342.56
2024-02-02T08:29:07.258Z,100362.28
2024-02-02T08:31:35.725Z,100354.59
2024-02-02T08:34:03.936Z,100368.34
2024-02-02T08:36:32.288Z,100343.97
2024-02-02T08:39:01.747Z,100364.69
2024-02-02T08:41:31.181Z,100363.94
2024-02-02T08:43:59.488Z,100370.81
2024-02-02T08:46:27.536Z,100358.50
2024-02-02T08:48:57.010Z,100369.13
2024-02-02T08:51:48.545Z,100383.66
2024-02-02T08:54:47.047Z,100372.88
2024-02-02T08:57:41.650Z,100378.09
2024-02-02T09:00:18.232Z,100371.78
2024-02-02T09:03:11.391Z,100380.06
2024-02-02T09:05:54.525Z,100371.75
2024-02-02T09:08:39.614Z,100386.19
2024-02-02T09:11:24.620Z,100389.06
2024-02-02T09:14:09.321Z,100390.28
2024-02-02T09:16:44.569Z,100362.91
2024-02-02T09:19:31.580Z,100343.75
2024-02-02T09:22:03.225Z,100388.47
2024-02-02T09:24:43.078Z,100384.97
2024-02-02T09:27:21.744Z,100384.03
2024-02-02T09:29:51.109Z,100371.66
2024-02-02T09:32:19.223Z,100362.25
2024-02-02T09:34:48.212Z,100389.56
2024-02-02T09:37:23.199Z,100386.41
2024-02-02T09:39:54.765Z,100381.69
2024-02-02T09:42:58.651Z,100380.75
2024-02-02T09:45:49.588Z,100379.84
2024-02-02T09:48:30.832Z,100386.16
2024-02-02T09:51:07.828Z,100381.97
2024-02-02T09:54:13.544Z,100376.38
2024-02-02T09:56:53.045Z,100379.19
2024-02-02T09:59:30.473Z,100379.56
2024-02-02T10:02:24.667Z,100371.09
2024-02-02T10:04:59.113Z,100377.59
2024-02-02T10:07:40.306Z,100374.72
2024-02-02T10:10:32.307Z,100387.13
2024-02-02T10:13:10.461Z,100382.38
2024-02-02T10:15:56.487Z,100380.75
2024-02-02T10:18:49.744Z,100372.50
2024-02-02T10:21:29.951Z,100373.69
2024-02-02T10:24:19.425Z,100370.22
2024-02-02T10:27:13.774Z,100348.81
2024-02-02T10:30:05.844Z,100341.81
2024-02-02T10:33:07.441Z,100371.47
2024-02-02T10:35:41.138Z,100324.50
2024-02-02T10:38:21.093Z,100375.72
2024-02-02T10:40:59.060Z,100377.41
2024-02-02T10:43:37.204Z,100379.09
2024-02-02T10:46:16.975Z,100370.34
2024-02-02T10:49:04.781Z,100364.19
2024-02-02T10:51:40.384Z,100369.09
2024-02-02T10:54:21.832Z,100366.19
2024-02-02T10:57:03.669Z,100367.31
2024-02-02T10:59:42.712Z,100366.03
2024-02-02T11:02:23.650Z,100364.38
2024-02-02T11:05:03.280Z,100361.09
2024-02-02T11:07:37.708Z,100360.16
2024-02-02T11:10:08.621Z,100280.13
2024-02-02T11:12:47.357Z,100366.28
2024-02-02T11:15:30.962Z,100360.66
2024-02-02T11:18:13.749Z,100355.88
2024-02-02T11:20:54.935Z,100365.91
2024-02-02T11:23:34.596Z,100352.81
2024-02-02T11:26:08.439Z,100369.47
2024-02-02T11:28:46.041Z,100361.25
2024-02-02T11:31:26.326Z,100365.28
2024-02-02T11:34:01.483Z,100356.56
2024-02-02T11:36:45.637Z,100355.97
2024-02-02T11:39:31.200Z,100354.94
2024-02-02T11:42:00.605Z,100342.13
2024-02-02T11:44:30.558Z,100322.28
2024-02-02T11:47:00.924Z,100344.25
2024-02-02T11:49:32.693Z,100346.72
2024-02-02T11:52:07.030Z,100341.81
2024-02-02T11:54:40.633Z,100345.34
2024-02-02T11:57:14.914Z,100346.91
2024-02-02T11:59:44.773Z,100349.13
2024-02-02T12:02:31.110Z,100343.06
2024-02-02T12:05:02.531Z,100330.31
2024-02-02T12:07:54.108Z,100337.44
2024-02-02T12:10:24.300Z,100297.34
2024-02-02T12:13:00.844Z,100294.66
2024-02-02T12:15:29.051Z,100334.75
2024-02-02T12:18:00.530Z,100333.09
2024-02-02T12:20:31.148Z,100298.69
2024-02-02T12:23:00.985Z,100335.00
2024-02-02T12:25:29.251Z,100328.63
2024-02-02T12:27:57.907Z,100329.66
2024-02-02T12:30:26.045Z,100334.34
2024-02-02T12:32:56.011Z,100228.66
2024-02-02T12:35:25.235Z,100347.16
2024-02-02T12:37:54.189Z,100331.03
2024-02-02T12:40:25.161Z,100312.31
2024-02-02T12:42:54.591Z,100343.28
2024-02-02T12:45:22.694Z,100338.56
2024-02-02T12:47:51.234Z,100335.94
2024-02-02T12:50:22.302Z,100313.66
2024-02-02T12:52:54.955Z,100331.75
2024-02-02T12:55:24.444Z,100323.72
2024-02-02T12:57:53.048Z,100344.75
2024-02-02T13:00:25.331Z,100347.03
2024-02-02T13:02:55.907Z,100345.28
2024-02-02T13:05:27.596Z,100353.31
2024-02-02T13:07:55.808Z,100348.28
2024-02-02T13:10:38.912Z,100350.16
2024-02-02T13:13:14.184Z,100345.78
2024-02-02T13:15:43.474Z,100346.13
2024-02-02T13:18:16.223Z,100354.94
2024-02-02T13:20:46.462Z,100317.03
2024-02-02T13:23:24.874Z,100362.63
2024-02-02T13:25:58.529Z,100360.13
2024-02-02T13:28:27.873Z,100354.78
2024-02-02T13:30:59.901Z,100330.31
2024-02-02T13:33:32.492Z,100356.41
2024-02-02T13:36:02.731Z,100344.47
2024-02-02T13:38:34.503Z,100338.38
2024-02-02T13:41:05.727Z,100361.53
2024-02-02T13:43:35.426Z,100371.84
2024-02-02T13:46:04.930Z,100372.66
2024-02-02T13:48:41.310Z,100375.66
2024-02-02T13:51:11.258Z,100383.19
2024-02-02T13:53:39.701Z,100379.28
2024-02-02T13:56:11.525Z,100277.25
2024-02-02T13:58:40.328Z,100377.44
2024-02-02T14:01:16.126Z,100346.50
2024-02-02T14:03:44.378Z,100394.22
2024-02-02T14:06:13.247Z,100392.59
2024-02-02T14:08:42.504Z,100400.78
2024-02-02T14:11:22.892Z,100397.63
2024-02-02T14:13:53.068Z,100393.72
2024-02-02T14:16:22.083Z,100417.25
2024-02-02T14:19:00.488Z,100403.47
2024-02-02T14:21:31.168Z,100404.22
2024-02-02T14:24:06.882Z,100415.88
2024-02-02T14:26:36.312Z,100410.13
2024-02-02T14:29:04.806Z,100397.19
2024-02-02T14:31:33.132Z,100415.78
2024-02-02T14:34:01.322Z,100408.16
2024-02-02T14:36:29.557Z,100427.25
2024-02-02T14:38:57.791Z,100425.31
2024-02-02T14:41:26.292Z,100396.91
2024-02-02T14:43:55.910Z,100438.47
2024-02-02T14:46:23.945Z,100451.50
2024-02-02T14:48:52.936Z,100447.88
2024-02-02T14:51:21.165Z,100450.41
2024-02-02T14:53:49.795Z,100424.06
2024-02-02T14:56:18.081Z,100381.59
2024-02-02T14:58:46.961Z,100447.75
2024-02-02T15:01:16.605Z,100458.00
2024-02-02T15:03:45.272Z,100467.00
2024-02-02T15:06:13.699Z,100459.69
2024-02-02T15:08:42.132Z,100468.53
2024-02-02T15:11:10.630Z,100411.00
2024-02-02T15:13:39.029Z,100464.59
2024-02-02T15:16:08.611Z,100439.38
2024-02-02T15:18:38.534Z,100475.16
2024-02-02T15:21:07.277Z,100473.38
2024-02-02T15:23:35.309Z,100473.22
2024-02-02T15:26:03.391Z,100438.00
2024-02-02T15:28:31.566Z,100486.06
2024-02-02T15:30:59.675Z,100455.41
2024-02-02T15:33:27.845Z,100478.41
2024-02-02T15:35:57.386Z,100495.56
2024-02-02T15:38:25.433Z,100491.44
2024-02-02T15:40:55.312Z,100506.03
2024-02-02T15:43:23.366Z,100500.94
2024-02-02T15:45:51.522Z,100495.72
2024-02-02T15:48:20.203Z,100510.59
2024-02-02T15:50:50.002Z,100510.84
2024-02-02T15:53:19.610Z,100512.59
2024-02-02T15:55:47.669Z,100497.34
2024-02-02T15:58:16.110Z,100516.94
2024-02-02T16:00:44.353Z,100502.16
2024-02-02T16:03:12.568Z,100503.75
2024-02-02T16:05:40.636Z,100477.22
2024-02-02T16:08:09.204Z,100532.72
2024-02-02T16:10:38.742Z,100517.44
2024-02-02T16:13:06.903Z,100525.53
2024-02-02T16:15:37.884Z,100537.69
2024-02-02T16:18:06.354Z,100540.53
2024-02-02T16:20:36.422Z,100540.91
2024-02-02T16:23:04.485Z,100489.72
2024-02-02T16:25:32.511Z,100553.75
2024-02-02T16:28:01.957Z,100466.41
2024-02-02T16:30:30.083Z,100560.97
2024-02-02T16:32:59.395Z,100566.09
2024-02-02T16:35:30.136Z,100563.03
2024-02-02T16:38:01.112Z,100572.38
2024-02-02T16:40:29.254Z,100574.44
2024-02-02T16:42:57.340Z,100575.91
2024-02-02T16:45:26.863Z,100577.63
2024-02-02T16:47:55.627Z,100576.22
2024-02-02T16:50:23.742Z,100586.00
2024-02-02T16:52:51.874Z,100487.41
2024-02-02T16:55:20.282Z,100587.97
2024-02-02T16:57:48.378Z,100524.66
2024-02-02T17:00:17.144Z,100509.94
2024-02-02T17:02:46.605Z,100584.53
2024-02-02T17:05:14.684Z,100608.00
2024-02-02T17:07:43.084Z,100609.78
2024-02-02T17:10:11.708Z,100612.38
2024-02-02T17:12:39.828Z,100617.56
2024-02-02T17:15:08.554Z,100605.53
2024-02-02T17:17:38.817Z,100581.19
2024-02-02T17:20:11.391Z,100617.56
2024-02-02T17:22:44.308Z,100623.44
2024-02-02T17:25:12.811Z,100623.44
2024-02-02T17:27:42.465Z,100624.97
2024-02-02T17:30:14.238Z,100604.97
2024-02-02T17:32:42.464Z,100629.41
2024-02-02T17:35:12.057Z,100622.78
2024-02-02T17:37:40.748Z,100565.25
2024-02-02T17:40:10.247Z,100639.34
2024-02-02T17:42:39.822Z,100623.75
2024-02-02T17:45:09.655Z,100567.56
2024-02-02T17:47:37.822Z,100635.91
2024-02-02T17:50:06.938Z,100638.84
2024-02-02T17:52:36.675Z,100634.25
2024-02-02T17:55:05.028Z,100636.53
2024-02-02T17:57:33.138Z,100572.25
2024-02-02T18:00:01.405Z,100634.25
2024-02-02T18:02:29.760Z,100618.75
2024-02-02T18:04:57.850Z,100608.22
2024-02-02T18:07:32.529Z,100629.66
2024-02-02T18:10:06.863Z,100554.53
2024-02-02T18:12:38.756Z,100614.38
2024-02-02T18:15:08.710Z,100634.72
2024-02-02T18:17:38.249Z,100640.31
2024-02-02T18:20:08.554Z,100645.63
2024-02-02T18:22:36.844Z,100643.84
2024-02-02T18:25:06.969Z,100633.03
2024-02-02T18:27:35.104Z,100639.06
2024-02-02T18:30:04.544Z,100625.44
2024-02-02T18:32:32.662Z,100630.03
2024-02-02T18:35:00.779Z,100617.38
2024-02-02T18:37:28.895Z,100630.22
2024-02-02T18:39:56.939Z,100636.28
2024-02-02T18:42:26.382Z,100633.41
2024-02-02T18:44:54.544Z,100637.38
2024-02-02T18:47:22.609Z,100633.19
2024-02-02T18:49:50.741Z,100633.97
2024-02-02T18:52:18.875Z,100633.31
2024-02-02T18:54:47.127Z,100650.69
2024-02-02T18:57:15.277Z,100649.41
2024-02-02T18:59:44.832Z,100645.47
2024-02-02T19:02:13.190Z,100657.56
2024-02-02T19:04:43.283Z,100655.25
2024-02-02T19:07:12.107Z,100653.84
2024-02-02T19:09:40.290Z,100654.66
2024-02-02T19:12:08.839Z,100659.28
2024-02-02T19:14:36.939Z,100653.41
2024-02-02T19:17:06.573Z,100649.69
2024-02-02T19:19:34.797Z,100656.22
2024-02-02T19:22:03.053Z,100659.59
2024-02-02T19:24:31.196Z,100658.19
2024-02-02T19:26:59.227Z,100547.50
2024-02-02T19:29:27.269Z,100657.50
2024-02-02T19:31:55.317Z,100651.44
2024-02-02T19:34:26.160Z,100654.75
2024-02-02T19:36:54.425Z,100654.00
2024-02-02T19:39:22.546Z,100658.13
2024-02-02T19:41:50.568Z,100634.31
2024-02-02T19:44:18.636Z,100623.16
2024-02-02T19:46:46.742Z,100664.59
2024-02-02T19:49:15.047Z,100660.16
2024-02-02T19:51:44.769Z,100667.38
2024-02-02T19:54:14.126Z,100672.72
2024-02-02T19:56:42.178Z,100670.25
2024-02-02T19:59:10.209Z,100660.28
2024-02-02T20:01:38.771Z,100668.44
2024-02-02T20:04:07.627Z,100673.50
2024-02-02T20:06:35.803Z,100682.97
2024-02-02T20:09:05.333Z,100679.16
2024-02-02T20:11:33.686Z,100650.19
2024-02-02T20:14:01.733Z,100677.28
2024-02-02T20:16:29.828Z,100683.69
2024-02-02T20:18:57.911Z,100684.31
2024-02-02T20:21:29.006Z,100685.03
2024-02-02T20:23:57.500Z,100673.09
2024-02-02T20:26:26.988Z,100652.97
2024-02-02T20:28:56.198Z,100686.91
2024-02-02T20:31:24.544Z,100684.03
2024-02-02T20:33:54.616Z,100659.28
2024-02-02T20:36:24.186Z,100689.56
2024-02-02T20:38:52.819Z,100688.44
2024-02-02T20:41:26.175Z,100689.22
2024-02-02T20:43:58.580Z,100669.34
2024-02-02T20:46:27.080Z,100648.34
2024-02-02T20:48:55.328Z,100684.31
2024-02-02T20:51:23.620Z,100681.84
2024-02-02T20:53:52.223Z,100671.13
2024-02-02T20:56:20.344Z,100670.22
2024-02-02T20:58:48.394Z,100670.41
2024-02-02T21:01:17.977Z,100672.03
2024-02-02T21:03:46.149Z,100676.94
2024-02-02T21:06:14.478Z,100675.47
2024-02-02T21:08:44.295Z,100669.16
2024-02-02T21:11:12.721Z,100676.66
2024-02-02T21:13:40.789Z,100682.78
2024-02-02T21:16:09.032Z,100655.22
2024-02-02T21:18:38.545Z,100664.78
2024-02-02T21:21:07.345Z,100671.00
2024-02-02T21:23:35.613Z,100644.97
2024-02-02T21:26:03.665Z,100678.72
2024-02-02T21:28:31.764Z,100680.13
2024-02-02T21:31:00.308Z,100681.13
2024-02-02T21:33:28.922Z,100682.41
2024-02-02T21:36:03.481Z,100686.06
2024-02-02T21:38:32.112Z,100684.00
2024-02-02T21:41:00.124Z,100683.13
2024-02-02T21:43:28.202Z,100674.56
2024-02-02T21:45:56.370Z,100678.72
2024-02-02T21:48:24.757Z,100677.44
2024-02-02T21:50:53.522Z,100686.13
2024-02-02T21:53:22.929Z,100679.16
2024-02-02T21:55:50.992Z,100673.66
2024-02-02T21:58:19.064Z,100656.94
2024-02-02T22:00:47.878Z,100675.16
2024-02-02T22:03:16.138Z,100680.16
2024-02-02T22:05:44.164Z,100679.38
2024-02-02T22:08:13.192Z,100676.84
2024-02-02T22:10:42.732Z,100663.13
2024-02-02T22:13:11.419Z,100669.38
2024-02-02T22:15:39.993Z,100652.75
2024-02-02T22:18:08.413Z,100681.44
2024-02-02T22:20:36.638Z,100671.19
2024-02-02T22:23:04.828Z,100668.06
2024-02-02T22:25:32.910Z,100667.69
2024-02-02T22:28:01.372Z,100672.34
2024-02-02T22:30:30.674Z,100678.03
2024-02-02T22:32:59.253Z,100672.94
2024-02-02T22:35:27.519Z,100663.19
2024-02-02T22:37:55.696Z,100653.66
2024-02-02T22:40:23.795Z,100656.13
2024-02-02T22:42:51.863Z,100621.88
2024-02-02T22:45:21.333Z,100657.84
2024-02-02T22:47:49.478Z,100659.69
2024-02-02T22:50:17.785Z,100660.00
2024-02-02T22:52:45.933Z,100546.03
2024-02-02T22:55:14.106Z,100664.09
2024-02-02T22:57:42.205Z,100669.47
2024-02-02T23:00:19.354Z,100653.91
2024-02-02T23:02:48.910Z,100652.50
2024-02-02T23:05:17.089Z,100649.13
2024-02-02T23:07:45.277Z,100653.47
2024-02-02T23:10:13.350Z,100648.22
2024-02-02T23:12:41.573Z,100638.72
2024-02-02T23:15:10.344Z,100638.13
2024-02-02T23:17:38.439Z,100632.22
2024-02-02T23:20:09.776Z,100635.69
2024-02-02T23:22:37.941Z,100634.56
2024-02-02T23:25:06.501Z,100605.75
2024-02-02T23:27:37.581Z,100620.81
2024-02-02T23:30:07.601Z,100616.59
2024-02-02T23:32:35.779Z,100611.72
2024-02-02T23:35:04.542Z,100606.88
2024-02-02T23:37:34.700Z,100608.31
2024-02-02T23:40:02.865Z,100621.06
2024-02-02T23:42:31.172Z,100593.19
2024-02-02T23:44:59.240Z,100605.22
2024-02-02T23:47:27.354Z,100605.41
2024-02-02T23:49:55.534Z,100605.75
2024-02-02T23:52:23.725Z,100601.94
2024-02-02T23:54:53.215Z,100600.97
2024-02-02T23:57:25.150Z,100571.41
2024-02-02T23:59:53.275Z,100603.34
